Time;durP1;ratioP1;P1;durP2;ratioP2;P2;SDS_P1;SDS_P2;PMS_P1;PMS_P2;Temp;Humidity;BMP_temperature;BMP_pressure;BME280_temperature;BME280_humidity;BME280_pressure;Samples;Min_cycle;Max_cycle;Signal;HPM_P1;HPM_P2
2022/05/22 00:02:09;;;;;;;1.77;1.52;;;17.00;57.30;;;;;;5016900;28;20040;-76
2022/05/22 00:04:35;;;;;;;1.52;1.42;;;17.00;57.20;;;;;;5014025;28;20025;-76
2022/05/22 00:07:01;;;;;;;2.05;1.40;;;17.00;57.20;;;;;;5019709;28;20494;-75
2022/05/22 00:09:30;;;;;;;1.95;1.45;;;17.00;57.20;;;;;;5034024;28;20029;-74
2022/05/22 00:11:56;;;;;;;1.52;1.40;;;17.10;57.20;;;;;;5034000;28;20037;-74
2022/05/22 00:14:21;;;;;;;1.65;1.55;;;17.10;57.20;;;;;;5033930;28;20040;-74
2022/05/22 00:16:48;;;;;;;1.38;1.27;;;17.10;57.00;;;;;;5028818;28;20028;-74
2022/05/22 00:19:13;;;;;;;1.55;1.38;;;17.10;57.20;;;;;;5013658;28;20058;-75
2022/05/22 00:21:40;;;;;;;1.88;1.50;;;17.10;57.10;;;;;;5024907;28;20065;-75
2022/05/22 00:24:07;;;;;;;2.08;1.25;;;17.10;56.90;;;;;;5033418;28;20025;-75
2022/05/22 00:26:33;;;;;;;2.58;1.70;;;17.00;56.80;;;;;;5032626;28;20053;-75
2022/05/22 00:28:59;;;;;;;2.40;1.50;;;17.00;57.00;;;;;;5032978;28;20029;-75
2022/05/22 00:31:25;;;;;;;1.63;1.52;;;16.90;57.00;;;;;;5027634;28;20033;-75
2022/05/22 00:33:51;;;;;;;3.75;1.65;;;16.80;57.20;;;;;;5033193;28;20065;-75
2022/05/22 00:36:17;;;;;;;2.30;1.58;;;16.70;57.40;;;;;;5032486;28;20460;-75
2022/05/22 00:38:42;;;;;;;1.95;1.60;;;16.60;57.50;;;;;;5033479;28;20064;-74
2022/05/22 00:41:09;;;;;;;1.52;1.42;;;16.60;57.60;;;;;;5031842;28;20387;-74
2022/05/22 00:43:40;;;;;;;7.07;1.98;;;16.50;57.70;;;;;;5033554;28;20025;-74
2022/05/22 00:46:07;;;;;;;1.83;1.58;;;16.50;57.70;;;;;;5032353;28;20383;-74
2022/05/22 00:48:34;;;;;;;1.50;1.40;;;16.50;57.80;;;;;;5033278;28;20029;-74
2022/05/22 00:51:09;;;;;;;4.53;1.70;;;16.50;57.80;;;;;;5019521;28;20053;-74
2022/05/22 00:53:41;;;;;;;1.40;1.30;;;16.40;57.70;;;;;;5013812;28;20109;-74
2022/05/22 00:56:10;;;;;;;1.58;1.40;;;16.40;57.70;;;;;;5013709;28;20448;-75
2022/05/22 00:58:36;;;;;;;1.60;1.50;;;16.40;57.80;;;;;;5013855;28;20076;-76
2022/05/22 01:01:03;;;;;;;1.60;1.50;;;16.30;57.90;;;;;;5027093;28;20041;-75
2022/05/22 01:03:31;;;;;;;2.15;1.38;;;16.30;57.90;;;;;;5033222;28;20441;-76
2022/05/22 01:06:00;;;;;;;3.60;1.50;;;16.30;57.90;;;;;;5031784;28;20112;-75
2022/05/22 01:08:26;;;;;;;1.63;1.40;;;16.30;58.10;;;;;;5032924;28;20029;-76
2022/05/22 01:10:55;;;;;;;2.85;1.60;;;16.30;58.20;;;;;;5019010;28;20038;-75
2022/05/22 01:13:27;;;;;;;1.58;1.30;;;16.30;58.00;;;;;;5013335;28;20030;-75
2022/05/22 01:15:53;;;;;;;3.42;1.73;;;16.30;58.10;;;;;;5013623;28;20030;-73
2022/05/22 01:18:18;;;;;;;2.75;1.40;;;16.30;58.20;;;;;;5013496;28;20022;-73
2022/05/22 01:20:49;;;;;;;1.60;1.50;;;16.20;58.30;;;;;;5024158;28;20533;-74
2022/05/22 01:23:16;;;;;;;2.08;1.65;;;16.30;58.50;;;;;;5031951;28;20452;-75
2022/05/22 01:25:41;;;;;;;1.55;1.40;;;16.30;58.40;;;;;;5032737;28;20073;-74
2022/05/22 01:28:09;;;;;;;1.88;1.60;;;16.30;58.40;;;;;;5033494;28;20485;-74
2022/05/22 01:30:35;;;;;;;2.45;1.60;;;16.20;58.30;;;;;;5022789;28;20034;-74
2022/05/22 01:33:01;;;;;;;3.72;1.92;;;16.20;58.50;;;;;;5013336;28;20037;-74
2022/05/22 01:35:28;;;;;;;1.98;1.50;;;16.10;58.60;;;;;;5013523;28;20374;-74
2022/05/22 01:37:54;;;;;;;4.00;1.70;;;16.00;58.80;;;;;;5016519;28;20030;-74
2022/05/22 01:40:21;;;;;;;2.92;1.70;;;15.90;58.90;;;;;;5030367;28;20033;-73
2022/05/22 01:42:47;;;;;;;1.70;1.60;;;15.90;59.10;;;;;;5016948;28;20025;-74
2022/05/22 01:45:17;;;;;;;1.83;1.65;;;16.00;58.90;;;;;;5016976;28;20026;-74
2022/05/22 01:47:42;;;;;;;1.75;1.65;;;16.00;58.70;;;;;;5019441;28;20095;-74
2022/05/22 01:50:09;;;;;;;1.65;1.55;;;16.00;58.80;;;;;;5030293;28;20045;-74
2022/05/22 01:52:35;;;;;;;1.63;1.52;;;15.90;58.80;;;;;;5016747;28;20029;-75
2022/05/22 01:55:01;;;;;;;1.50;1.40;;;15.90;58.90;;;;;;5016681;28;20080;-74
2022/05/22 01:57:29;;;;;;;1.80;1.70;;;15.80;58.90;;;;;;5016830;28;20030;-74
2022/05/22 01:59:55;;;;;;;1.50;1.50;;;15.80;59.00;;;;;;5019514;28;20104;-75
2022/05/22 02:02:20;;;;;;;2.45;1.77;;;15.80;59.10;;;;;;5017678;28;20112;-74
2022/05/22 02:04:46;;;;;;;1.90;1.80;;;15.70;59.10;;;;;;5015276;28;20434;-74
2022/05/22 02:09:57;;;;;;;;;;;15.70;59.00;;;;;;5020025;28;20048;-74
2022/05/22 02:12:22;;;;;;;1.67;1.42;;;15.70;59.10;;;;;;5032305;28;19909;-74
2022/05/22 02:14:48;;;;;;;2.45;2.25;;;15.70;59.10;;;;;;5035986;28;20033;-74
2022/05/22 02:17:14;;;;;;;1.52;1.50;;;15.60;59.10;;;;;;5035107;28;20086;-73
2022/05/22 02:19:39;;;;;;;1.85;1.75;;;15.60;59.10;;;;;;5034257;28;20380;-74
2022/05/22 02:22:05;;;;;;;2.55;1.80;;;15.60;59.20;;;;;;5015864;28;20018;-73
2022/05/22 02:24:31;;;;;;;1.95;1.75;;;15.60;59.30;;;;;;5015820;28;20029;-73
2022/05/22 02:26:56;;;;;;;1.60;1.50;;;15.50;59.40;;;;;;5014783;28;20499;-72
2022/05/22 02:29:24;;;;;;;2.70;1.42;;;15.60;59.40;;;;;;5017537;28;20038;-74
2022/05/22 02:31:50;;;;;;;1.75;1.50;;;15.60;59.30;;;;;;5035548;28;20368;-73
2022/05/22 02:34:16;;;;;;;3.47;2.38;;;15.50;59.10;;;;;;5035421;28;20034;-73
2022/05/22 02:36:41;;;;;;;2.75;1.58;;;15.50;59.20;;;;;;5035926;28;20096;-74
2022/05/22 02:39:07;;;;;;;1.60;1.50;;;15.50;59.30;;;;;;5020982;28;20034;-74
2022/05/22 02:41:33;;;;;;;2.25;1.65;;;15.40;59.20;;;;;;5035113;28;20152;-72
2022/05/22 02:43:58;;;;;;;2.38;1.33;;;15.40;59.30;;;;;;5035573;28;20526;-73
2022/05/22 02:46:24;;;;;;;2.72;1.50;;;15.40;59.30;;;;;;5035610;28;20037;-74
2022/05/22 02:48:50;;;;;;;1.80;1.58;;;15.40;59.30;;;;;;5033983;28;20104;-74
2022/05/22 02:51:18;;;;;;;3.42;1.40;;;15.40;59.10;;;;;;5031888;28;20056;-73
2022/05/22 02:53:45;;;;;;;1.50;1.40;;;15.40;59.10;;;;;;5015354;28;20050;-73
2022/05/22 02:56:13;;;;;;;3.63;1.40;;;15.40;59.00;;;;;;5014949;28;20502;-74
2022/05/22 02:58:39;;;;;;;1.50;1.40;;;15.30;59.00;;;;;;5015866;28;20026;-74
2022/05/22 03:01:05;;;;;;;1.80;1.70;;;15.30;59.30;;;;;;5015099;28;20034;-75
2022/05/22 03:03:31;;;;;;;1.83;1.48;;;15.50;59.00;;;;;;5016186;28;20022;-74
2022/05/22 03:08:41;;;;;;;1.50;1.40;;;15.50;58.10;;;;;;5014824;28;20064;-75
2022/05/22 03:11:07;;;;;;;1.50;1.40;;;15.50;58.10;;;;;;5026595;28;20061;-74
2022/05/22 03:13:34;;;;;;;1.40;1.30;;;15.40;58.30;;;;;;5034941;28;20481;-73
2022/05/22 03:15:59;;;;;;;3.20;1.35;;;15.40;58.30;;;;;;5033399;28;20087;-75
2022/05/22 03:18:25;;;;;;;1.50;1.40;;;15.40;58.30;;;;;;5034981;28;20025;-75
2022/05/22 03:20:51;;;;;;;1.25;1.25;;;15.40;58.40;;;;;;5031161;28;20026;-74
2022/05/22 03:23:17;;;;;;;1.20;1.20;;;15.40;58.60;;;;;;5014832;28;20030;-74
2022/05/22 03:25:46;;;;;;;1.33;1.23;;;15.40;58.70;;;;;;5015212;28;20046;-75
2022/05/22 03:28:13;;;;;;;1.25;1.23;;;15.40;58.70;;;;;;5015020;28;20023;-75
2022/05/22 03:30:39;;;;;;;2.15;1.30;;;15.50;58.50;;;;;;5015581;28;20060;-75
2022/05/22 03:33:05;;;;;;;1.30;1.20;;;15.50;58.50;;;;;;5034411;28;20112;-75
2022/05/22 03:35:31;;;;;;;2.25;1.23;;;15.60;58.50;;;;;;5035005;28;20033;-75
2022/05/22 03:37:56;;;;;;;1.13;1.13;;;15.60;58.50;;;;;;5034299;28;20052;-75
2022/05/22 03:40:22;;;;;;;1.58;1.30;;;15.60;58.30;;;;;;5033498;28;20034;-75
2022/05/22 03:42:48;;;;;;;1.45;1.35;;;15.60;58.30;;;;;;5015035;28;20560;-74
2022/05/22 03:45:14;;;;;;;1.25;1.15;;;15.60;58.30;;;;;;5014294;28;20061;-74
2022/05/22 03:47:39;;;;;;;1.60;1.20;;;15.60;58.40;;;;;;5014768;28;20062;-74
2022/05/22 03:50:08;;;;;;;1.10;1.10;;;15.60;58.60;;;;;;5014377;28;20061;-74
2022/05/22 03:52:36;;;;;;;1.23;1.20;;;15.70;58.40;;;;;;5029548;28;20377;-74
2022/05/22 03:55:03;;;;;;;3.53;1.20;;;15.70;58.20;;;;;;5034084;28;20026;-75
2022/05/22 03:57:29;;;;;;;1.23;1.13;;;15.80;58.10;;;;;;5032837;28;20025;-74
2022/05/22 03:59:55;;;;;;;1.30;1.20;;;15.70;58.20;;;;;;5033927;28;20041;-75
2022/05/22 04:02:20;;;;;;;1.05;1.05;;;15.70;58.30;;;;;;5018580;28;20400;-75
2022/05/22 04:04:46;;;;;;;1.27;1.15;;;15.80;58.40;;;;;;5014177;28;20123;-74
2022/05/22 04:07:13;;;;;;;1.20;1.15;;;15.80;58.40;;;;;;5014268;28;20032;-75
2022/05/22 04:09:39;;;;;;;1.00;1.00;;;15.80;58.60;;;;;;5013936;28;20033;-75
2022/05/22 04:12:11;;;;;;;2.88;1.20;;;15.90;58.40;;;;;;5024557;28;20099;-75
2022/05/22 04:14:37;;;;;;;2.97;1.30;;;16.00;58.40;;;;;;5033865;28;20041;-75
2022/05/22 04:17:03;;;;;;;1.38;1.27;;;16.10;58.30;;;;;;5033920;28;20021;-75
2022/05/22 04:19:29;;;;;;;1.55;1.40;;;16.10;58.20;;;;;;5033730;28;20033;-75
2022/05/22 04:21:55;;;;;;;1.10;1.10;;;16.20;58.30;;;;;;5031977;28;20045;-74
2022/05/22 04:27:05;;;;;;;2.35;1.33;;;16.30;58.30;;;;;;5014013;28;20088;-75
2022/05/22 04:29:33;;;;;;;1.42;1.33;;;16.40;58.00;;;;;;5012746;28;20125;-75
2022/05/22 04:31:58;;;;;;;1.70;1.40;;;16.50;57.90;;;;;;5014256;28;20026;-75
2022/05/22 04:34:24;;;;;;;1.50;1.38;;;16.50;57.80;;;;;;5012573;28;20321;-75
2022/05/22 04:36:50;;;;;;;1.65;1.30;;;16.50;57.80;;;;;;5024671;28;20109;-75
2022/05/22 04:39:15;;;;;;;2.45;1.50;;;16.50;57.80;;;;;;5033789;28;20422;-75
2022/05/22 04:41:41;;;;;;;1.30;1.27;;;16.40;57.80;;;;;;5033166;28;20081;-76
2022/05/22 04:44:07;;;;;;;3.20;1.48;;;16.60;57.90;;;;;;5033771;28;20075;-75
2022/05/22 04:46:33;;;;;;;1.50;1.40;;;16.50;57.70;;;;;;5025831;28;20480;-76
2022/05/22 04:48:59;;;;;;;1.42;1.33;;;16.50;57.70;;;;;;5013631;28;20058;-76
2022/05/22 04:51:25;;;;;;;1.50;1.40;;;16.50;57.70;;;;;;5013656;28;20034;-76
2022/05/22 04:53:51;;;;;;;1.77;1.67;;;16.50;57.90;;;;;;5013675;28;20056;-76
2022/05/22 04:56:17;;;;;;;2.58;1.50;;;16.40;58.00;;;;;;5018760;28;20018;-76
2022/05/22 04:58:42;;;;;;;1.88;1.50;;;16.40;58.00;;;;;;5032028;28;20460;-75
2022/05/22 05:01:09;;;;;;;1.98;1.70;;;16.50;58.20;;;;;;5033373;28;20567;-74
2022/05/22 05:03:35;;;;;;;1.55;1.45;;;16.50;58.20;;;;;;5031516;28;20056;-74
2022/05/22 05:06:02;;;;;;;2.35;1.60;;;16.40;58.30;;;;;;5022502;28;20030;-75
2022/05/22 05:08:30;;;;;;;1.88;1.73;;;16.50;58.30;;;;;;5013560;28;20026;-75
2022/05/22 05:10:59;;;;;;;2.90;1.65;;;16.50;58.20;;;;;;5029089;28;20099;-76
2022/05/22 05:13:26;;;;;;;1.88;1.77;;;16.60;58.40;;;;;;5033101;28;20052;-76
2022/05/22 05:16:07;;;;;;;1.60;1.50;;;16.60;58.30;;;;;;5032094;28;20056;-76
2022/05/22 05:18:35;;;;;;;2.65;1.85;;;16.60;58.20;;;;;;5016157;28;20098;-76
2022/05/22 05:21:05;;;;;;;1.83;1.70;;;16.70;58.30;;;;;;5015815;28;20454;-75
2022/05/22 05:23:31;;;;;;;3.05;1.70;;;16.70;58.20;;;;;;5017415;28;20373;-76
2022/05/22 05:25:57;;;;;;;2.63;2.10;;;16.80;58.00;;;;;;5021484;28;20147;-76
2022/05/22 05:28:22;;;;;;;4.03;2.08;;;16.70;57.80;;;;;;5036813;28;20087;-76
2022/05/22 05:30:48;;;;;;;2.45;1.80;;;16.70;58.00;;;;;;5036820;28;20029;-76
2022/05/22 05:33:14;;;;;;;2.30;1.75;;;16.70;57.80;;;;;;5036920;28;20095;-76
2022/05/22 05:35:40;;;;;;;2.28;1.80;;;16.60;57.80;;;;;;5034618;28;20599;-75
2022/05/22 05:38:06;;;;;;;2.00;1.85;;;16.70;57.90;;;;;;5016963;28;20026;-75
2022/05/22 05:40:32;;;;;;;2.10;1.70;;;16.70;57.70;;;;;;5017031;28;20540;-68
2022/05/22 05:42:58;;;;;;;1.92;1.80;;;16.70;57.70;;;;;;5015506;28;20357;-68
2022/05/22 05:45:24;;;;;;;1.77;1.67;;;16.60;57.50;;;;;;5023088;28;20033;-68
2022/05/22 05:47:50;;;;;;;2.35;1.85;;;16.60;57.70;;;;;;5036604;28;20041;-69
2022/05/22 05:50:22;;;;;;;2.85;1.67;;;16.60;57.70;;;;;;5036190;28;20030;-69
2022/05/22 05:52:58;;;;;;;3.10;2.10;;;16.60;57.80;;;;;;5035792;28;20044;-68
2022/05/22 05:55:24;;;;;;;1.70;1.60;;;16.50;57.70;;;;;;5028184;28;20109;-68
2022/05/22 05:57:51;;;;;;;3.35;1.83;;;16.60;57.70;;;;;;5015429;28;20117;-70
2022/05/22 06:00:20;;;;;;;2.25;1.83;;;16.60;57.70;;;;;;5015190;28;20033;-69
2022/05/22 06:02:46;;;;;;;1.85;1.73;;;16.60;57.70;;;;;;5015698;28;20076;-68
2022/05/22 06:05:12;;;;;;;1.67;1.58;;;16.70;57.70;;;;;;5015176;28;20053;-69
2022/05/22 06:07:38;;;;;;;2.47;1.92;;;16.70;57.60;;;;;;5016424;28;20453;-68
2022/05/22 06:10:10;;;;;;;2.05;1.70;;;16.70;57.50;;;;;;5015439;28;20037;-70
2022/05/22 06:12:36;;;;;;;1.55;1.38;;;16.80;57.50;;;;;;5017047;28;20030;-69
2022/05/22 06:15:02;;;;;;;2.67;1.80;;;16.80;56.80;;;;;;5028797;28;20110;-69
2022/05/22 06:17:29;;;;;;;3.05;1.83;;;16.80;55.80;;;;;;5032531;28;20033;-70
2022/05/22 06:19:55;;;;;;;1.90;1.40;;;16.80;56.20;;;;;;5030581;28;20514;-68
2022/05/22 06:22:22;;;;;;;1.40;1.30;;;16.80;56.30;;;;;;5035669;28;20033;-68
2022/05/22 06:24:49;;;;;;;2.15;1.40;;;16.80;56.20;;;;;;5035045;28;20022;-64
2022/05/22 06:27:15;;;;;;;1.92;1.30;;;16.90;56.30;;;;;;5034343;28;20506;-67
2022/05/22 06:29:42;;;;;;;1.30;1.20;;;16.90;56.50;;;;;;5030715;28;20125;-70
2022/05/22 06:32:12;;;;;;;1.65;1.40;;;17.00;56.60;;;;;;5034739;28;20036;-69
2022/05/22 06:34:41;;;;;;;2.65;1.33;;;17.10;56.30;;;;;;5033875;28;20025;-66
2022/05/22 06:37:10;;;;;;;2.95;1.42;;;17.20;56.00;;;;;;5034553;28;20052;-67
2022/05/22 06:39:51;;;;;;;3.90;1.58;;;17.20;55.60;;;;;;5022395;28;20057;-68
2022/05/22 06:42:29;;;;;;;1.42;1.33;;;17.30;55.40;;;;;;5027710;28;20055;-66
2022/05/22 06:44:57;;;;;;;1.60;1.27;;;17.40;55.50;;;;;;5023016;28;20029;-66
2022/05/22 06:47:24;;;;;;;1.58;1.48;;;17.50;54.90;;;;;;5023556;28;20049;-65
2022/05/22 06:49:51;;;;;;;1.30;1.20;;;17.50;54.50;;;;;;5023482;28;20036;-65
2022/05/22 06:52:18;;;;;;;1.40;1.30;;;17.40;54.50;;;;;;5019383;28;20392;-65
2022/05/22 06:54:44;;;;;;;1.40;1.30;;;17.40;54.50;;;;;;5016055;28;20087;-66
2022/05/22 06:57:10;;;;;;;1.38;1.23;;;17.50;54.30;;;;;;5020060;28;20029;-68
2022/05/22 06:59:36;;;;;;;1.40;1.20;;;17.40;54.40;;;;;;5033077;28;20030;-68
2022/05/22 07:02:02;;;;;;;1.10;1.10;;;17.50;54.20;;;;;;5028179;28;20463;-68
2022/05/22 07:04:29;;;;;;;1.30;1.20;;;17.50;54.40;;;;;;5020332;28;20058;-67
2022/05/22 07:06:55;;;;;;;1.23;1.13;;;17.60;54.40;;;;;;5013922;28;20447;-67
2022/05/22 07:09:20;;;;;;;1.85;1.20;;;17.70;54.20;;;;;;5014543;28;20130;-66
2022/05/22 07:11:47;;;;;;;1.30;1.20;;;17.70;54.10;;;;;;5014458;28;20045;-65
2022/05/22 07:14:16;;;;;;;1.35;1.25;;;17.70;53.90;;;;;;5015157;28;20092;-65
2022/05/22 07:16:42;;;;;;;1.20;1.20;;;17.70;53.90;;;;;;5015147;28;20065;-65
2022/05/22 07:19:11;;;;;;;3.40;1.33;;;17.60;53.70;;;;;;5014009;28;20025;-65
2022/05/22 07:21:37;;;;;;;1.75;1.42;;;17.50;53.80;;;;;;5013545;28;20030;-66
2022/05/22 07:24:02;;;;;;;1.45;1.35;;;17.50;54.00;;;;;;5014715;28;20030;-66
2022/05/22 07:26:29;;;;;;;1.35;1.25;;;17.50;54.30;;;;;;5014741;28;20392;-65
2022/05/22 07:28:58;;;;;;;1.40;1.30;;;17.50;54.30;;;;;;5014791;28;20034;-67
2022/05/22 07:31:26;;;;;;;1.50;1.40;;;17.50;54.30;;;;;;5013416;28;20054;-64
2022/05/22 07:33:52;;;;;;;1.60;1.50;;;17.50;54.30;;;;;;5014774;28;20087;-65
2022/05/22 07:36:19;;;;;;;2.00;1.58;;;17.50;54.10;;;;;;5013885;28;20452;-66
2022/05/22 07:38:45;;;;;;;1.58;1.48;;;17.40;54.20;;;;;;5014436;28;20030;-66
2022/05/22 07:41:12;;;;;;;1.50;1.40;;;17.40;54.10;;;;;;5013809;28;20057;-65
2022/05/22 07:43:38;;;;;;;1.77;1.63;;;17.30;54.10;;;;;;5014800;28;20415;-65
2022/05/22 07:46:05;;;;;;;1.60;1.50;;;17.20;54.40;;;;;;5013038;28;20022;-64
2022/05/22 07:48:31;;;;;;;2.15;1.40;;;17.20;54.60;;;;;;5014250;28;20034;-65
2022/05/22 07:50:59;;;;;;;1.45;1.33;;;17.20;54.70;;;;;;5014057;28;20552;-66
2022/05/22 07:53:27;;;;;;;1.83;1.50;;;17.20;54.90;;;;;;5013493;28;20388;-66
2022/05/22 07:55:53;;;;;;;1.73;1.42;;;17.20;54.90;;;;;;5013242;28;20022;-66
2022/05/22 07:58:21;;;;;;;3.42;1.55;;;17.30;54.90;;;;;;5013003;28;20109;-66
2022/05/22 08:00:47;;;;;;;1.55;1.40;;;17.30;54.80;;;;;;5013061;28;20034;-66
2022/05/22 08:03:15;;;;;;;1.50;1.40;;;17.30;54.90;;;;;;5014317;28;20101;-66
2022/05/22 08:05:42;;;;;;;1.40;1.30;;;17.30;55.00;;;;;;5014028;28;20033;-66
2022/05/22 08:08:09;;;;;;;1.42;1.33;;;17.20;55.00;;;;;;5014547;28;20065;-65
2022/05/22 08:10:38;;;;;;;2.55;1.70;;;17.20;55.10;;;;;;5014329;28;20038;-64
2022/05/22 08:13:05;;;;;;;2.63;1.52;;;17.20;55.30;;;;;;5012950;28;20033;-64
2022/05/22 08:15:33;;;;;;;1.58;1.48;;;17.10;55.40;;;;;;5014066;28;20022;-66
2022/05/22 08:18:00;;;;;;;1.88;1.67;;;17.10;55.60;;;;;;5014152;28;20456;-66
2022/05/22 08:20:28;;;;;;;1.50;1.40;;;17.10;55.80;;;;;;5012841;28;20034;-66
2022/05/22 08:22:55;;;;;;;1.50;1.40;;;17.20;55.90;;;;;;5012802;28;20372;-65
2022/05/22 08:25:23;;;;;;;1.35;1.27;;;17.20;55.80;;;;;;5012527;28;20050;-65
2022/05/22 08:27:48;;;;;;;1.70;1.60;;;17.30;55.80;;;;;;5012502;28;20030;-66
2022/05/22 08:30:16;;;;;;;1.38;1.27;;;17.40;55.70;;;;;;5013733;28;20131;-65
2022/05/22 08:32:44;;;;;;;1.50;1.23;;;17.50;55.60;;;;;;5013792;28;20026;-66
2022/05/22 08:35:14;;;;;;;1.52;1.42;;;17.60;55.50;;;;;;5012363;28;20029;-66
2022/05/22 08:37:41;;;;;;;1.02;1.00;;;17.70;55.40;;;;;;5013960;28;20122;-66
2022/05/22 08:40:07;;;;;;;1.70;1.50;;;17.80;55.10;;;;;;5012590;28;20030;-66
2022/05/22 08:42:50;;;;;;;1.40;1.30;;;17.90;55.00;;;;;;5013770;28;20030;-66
2022/05/22 08:45:22;;;;;;;2.00;1.52;;;17.90;54.80;;;;;;5012510;28;20034;-66
2022/05/22 08:48:07;;;;;;;1.67;1.35;;;17.90;54.70;;;;;;5013288;28;20619;-66
2022/05/22 08:50:36;;;;;;;1.40;1.30;;;17.80;55.00;;;;;;5017793;28;20066;-65
2022/05/22 08:53:25;;;;;;;1.98;1.63;;;17.70;54.40;;;;;;5016552;28;20531;-66
2022/05/22 08:58:57;;;;;;;1.90;1.50;;;17.50;54.80;;;;;;5017725;28;20060;-66
2022/05/22 09:01:38;;;;;;;1.77;1.50;;;17.30;55.00;;;;;;5017672;28;20382;-66
2022/05/22 09:04:03;;;;;;;1.52;1.42;;;17.30;55.50;;;;;;5017446;28;20433;-67
2022/05/22 09:06:35;;;;;;;1.60;1.50;;;17.30;55.90;;;;;;5017117;28;20061;-65
2022/05/22 09:09:01;;;;;;;1.50;1.40;;;17.40;56.00;;;;;;5016467;28;20376;-66
2022/05/22 09:11:34;;;;;;;2.08;1.70;;;17.50;56.00;;;;;;5016408;28;20038;-65
2022/05/22 09:14:11;;;;;;;1.52;1.40;;;17.50;55.70;;;;;;5016210;28;20452;-66
2022/05/22 09:16:52;;;;;;;1.40;1.30;;;17.60;55.30;;;;;;5015812;28;20080;-65
2022/05/22 09:19:33;;;;;;;1.63;1.52;;;17.60;55.30;;;;;;5017759;28;20376;-65
2022/05/22 09:22:16;;;;;;;1.52;1.42;;;17.70;54.90;;;;;;5015957;28;20030;-68
2022/05/22 09:25:26;;;;;;;2.28;1.42;;;17.70;54.90;;;;;;5017032;28;20049;-66
2022/05/22 09:27:57;;;;;;;1.40;1.30;;;17.50;54.50;;;;;;5054333;28;20056;-67
2022/05/22 09:30:49;;;;;;;1.42;1.33;;;17.50;54.80;;;;;;5054694;28;20134;-66
2022/05/22 09:33:41;;;;;;;1.35;1.35;;;17.50;54.80;;;;;;5023311;28;20392;-65
2022/05/22 09:36:17;;;;;;;1.42;1.38;;;17.50;54.70;;;;;;5016955;28;20144;-64
2022/05/22 09:38:46;;;;;;;1.30;1.30;;;17.60;55.00;;;;;;5016887;28;20088;-66
2022/05/22 09:41:32;;;;;;;1.42;1.38;;;17.60;55.10;;;;;;5016477;28;20033;-65
2022/05/22 09:44:20;;;;;;;1.10;1.10;;;17.60;55.20;;;;;;5016646;28;20026;-66
2022/05/22 09:47:00;;;;;;;1.67;1.58;;;17.70;55.40;;;;;;5017128;28;20037;-65
2022/05/22 09:49:48;;;;;;;1.60;1.50;;;17.70;55.30;;;;;;5015593;28;20030;-66
2022/05/22 09:52:20;;;;;;;1.40;1.30;;;17.60;55.50;;;;;;5016548;28;20440;-66
2022/05/22 09:55:04;;;;;;;1.45;1.35;;;17.50;55.90;;;;;;5016433;28;20109;-66
2022/05/22 09:57:41;;;;;;;1.23;1.20;;;17.60;56.30;;;;;;5016281;28;20026;-66
2022/05/22 10:00:09;;;;;;;2.00;1.30;;;17.70;56.60;;;;;;5015304;28;20113;-66
2022/05/22 10:02:54;;;;;;;1.60;1.42;;;17.80;56.60;;;;;;5016210;28;20033;-66
2022/05/22 10:05:38;;;;;;;1.92;1.55;;;18.00;56.50;;;;;;5016303;28;20109;-66
2022/05/22 10:08:13;;;;;;;1.30;1.20;;;18.10;56.30;;;;;;5016142;28;20053;-66
2022/05/22 10:10:50;;;;;;;1.30;1.20;;;18.20;56.80;;;;;;5016178;28;20033;-66
2022/05/22 10:13:30;;;;;;;1.40;1.30;;;18.40;55.80;;;;;;5016769;28;20028;-66
2022/05/22 10:16:29;;;;;;;1.25;1.23;;;18.40;55.70;;;;;;5016346;28;20030;-66
2022/05/22 10:19:16;;;;;;;1.45;1.35;;;18.50;55.60;;;;;;5039248;28;20542;-66
2022/05/22 10:21:46;;;;;;;1.63;1.30;;;18.30;55.30;;;;;;5015802;28;20465;-66
2022/05/22 10:24:27;;;;;;;1.15;1.15;;;18.20;55.60;;;;;;5014870;28;20117;-76
2022/05/22 10:27:04;;;;;;;1.10;1.10;;;18.00;55.80;;;;;;5016526;28;20050;-73
2022/05/22 10:29:49;;;;;;;1.13;1.08;;;18.00;56.30;;;;;;5014371;28;20026;-75
2022/05/22 10:32:26;;;;;;;1.35;1.25;;;17.90;56.30;;;;;;5016233;28;20087;-74
2022/05/22 10:35:01;;;;;;;1.00;1.00;;;18.00;56.30;;;;;;5014865;28;20472;-73
2022/05/22 10:37:49;;;;;;;2.25;1.20;;;18.00;56.20;;;;;;5016023;28;20022;-74
2022/05/22 10:40:19;;;;;;;1.05;1.02;;;18.10;56.20;;;;;;5019088;28;20083;-75
2022/05/22 10:42:50;;;;;;;1.15;1.10;;;18.20;56.00;;;;;;5024158;28;20080;-75
2022/05/22 10:45:36;;;;;;;1.40;1.30;;;18.30;56.00;;;;;;5013981;28;20403;-75
2022/05/22 10:48:19;;;;;;;1.25;1.20;;;18.30;55.70;;;;;;5014139;28;20026;-75
2022/05/22 10:51:05;;;;;;;1.10;1.10;;;18.40;55.00;;;;;;5020209;28;20511;-75
2022/05/22 10:53:34;;;;;;;0.93;0.93;;;18.50;55.30;;;;;;5020490;28;20411;-75
2022/05/22 10:56:25;;;;;;;1.67;1.10;;;18.60;55.30;;;;;;5021358;28;20406;-75
2022/05/22 10:59:01;;;;;;;1.10;1.10;;;18.70;54.70;;;;;;5031312;28;20106;-75
2022/05/22 11:01:29;;;;;;;1.00;1.00;;;18.80;55.00;;;;;;5033360;28;20037;-74
2022/05/22 11:04:08;;;;;;;1.33;1.23;;;18.80;55.00;;;;;;5033682;28;20388;-73
2022/05/22 11:06:37;;;;;;;1.10;1.10;;;18.90;54.80;;;;;;5035529;28;20063;-74
2022/05/22 11:09:05;;;;;;;1.05;1.05;;;18.90;54.80;;;;;;5034720;28;20456;-75
2022/05/22 11:11:34;;;;;;;1.00;1.00;;;19.00;54.70;;;;;;5034887;28;20060;-75
2022/05/22 11:14:12;;;;;;;1.50;1.00;;;19.00;54.60;;;;;;5034767;28;20021;-77
2022/05/22 11:16:39;;;;;;;1.20;1.20;;;19.10;54.60;;;;;;5033502;28;20054;-77
2022/05/22 11:19:29;;;;;;;0.98;0.98;;;19.20;54.40;;;;;;5033392;28;20039;-77
2022/05/22 11:22:23;;;;;;;0.80;0.80;;;19.20;54.30;;;;;;5035137;28;20037;-78
2022/05/22 11:25:06;;;;;;;0.90;0.90;;;19.30;54.20;;;;;;5033945;28;20032;-76
2022/05/22 11:28:10;;;;;;;0.83;0.83;;;19.40;54.10;;;;;;5034662;28;20026;-77
2022/05/22 11:30:59;;;;;;;0.90;0.90;;;19.50;53.70;;;;;;5034660;28;20042;-78
2022/05/22 11:34:15;;;;;;;1.23;1.13;;;19.60;53.60;;;;;;5034835;28;20029;-79
2022/05/22 11:37:00;;;;;;;;;;;19.70;52.60;;;;;;5024751;28;20029;-77
2022/05/22 11:39:40;;;;;;;0.95;0.95;;;19.80;52.60;;;;;;5034277;28;20275;-78
2022/05/22 11:42:33;;;;;;;0.90;0.90;;;20.00;52.50;;;;;;5034634;28;20029;-78
2022/05/22 11:45:36;;;;;;;0.70;0.70;;;20.10;52.40;;;;;;5034528;28;20087;-79
2022/05/22 11:48:27;;;;;;;0.90;0.90;;;20.30;52.40;;;;;;5034285;28;20116;-78
2022/05/22 11:51:14;;;;;;;0.95;0.95;;;20.30;52.60;;;;;;5034189;28;20049;-77
2022/05/22 11:53:43;;;;;;;0.80;0.80;;;20.30;52.50;;;;;;5035327;28;20566;-78
2022/05/22 11:56:29;;;;;;;2.17;0.77;;;20.30;52.80;;;;;;5034078;28;20030;-77
2022/05/22 11:59:10;;;;;;;0.90;0.90;;;20.40;52.30;;;;;;5033845;28;20108;-78
2022/05/22 12:01:45;;;;;;;0.75;0.75;;;20.30;51.70;;;;;;5033853;28;20032;-78
2022/05/22 12:04:37;;;;;;;0.70;0.70;;;20.20;52.10;;;;;;5032990;28;20105;-81
2022/05/22 12:07:31;;;;;;;0.82;0.82;;;20.10;52.20;;;;;;5033931;28;20094;-82
2022/05/22 12:10:11;;;;;;;1.10;0.90;;;20.10;51.70;;;;;;5032769;28;20034;-83
2022/05/22 12:12:46;;;;;;;0.80;0.80;;;20.00;52.00;;;;;;5033825;28;20021;-82
2022/05/22 12:15:27;;;;;;;0.80;0.80;;;20.10;51.90;;;;;;5033925;28;20029;-80
2022/05/22 12:18:10;;;;;;;0.80;0.80;;;20.20;51.50;;;;;;5033520;28;20091;-79
2022/05/22 12:20:46;;;;;;;3.17;1.00;;;20.30;52.40;;;;;;5032665;28;20039;-79
2022/05/22 12:23:21;;;;;;;1.15;0.90;;;20.40;52.10;;;;;;5032158;28;20471;-79
2022/05/22 12:25:52;;;;;;;1.95;1.25;;;20.50;52.00;;;;;;5033544;28;20082;-77
2022/05/22 12:28:47;;;;;;;0.63;0.63;;;20.50;51.80;;;;;;5026549;28;20092;-79
2022/05/22 12:31:31;;;;;;;;;;;20.50;51.30;;;;;;5020987;28;20471;-78
2022/05/22 12:34:05;;;;;;;1.00;1.00;;;20.30;50.90;;;;;;5020382;28;19905;-80
2022/05/22 12:36:32;;;;;;;0.70;0.70;;;20.30;51.70;;;;;;5023449;28;20022;-78
2022/05/22 12:39:10;;;;;;;0.80;0.80;;;20.10;51.90;;;;;;5022156;28;20018;-78
2022/05/22 12:42:10;;;;;;;0.73;0.73;;;20.00;51.90;;;;;;5017977;28;20037;-80
2022/05/22 12:44:36;;;;;;;0.82;0.82;;;20.00;52.10;;;;;;5011742;28;20495;-79
2022/05/22 12:47:14;;;;;;;0.75;0.75;;;20.00;52.30;;;;;;5011558;28;20038;-79
2022/05/22 12:49:40;;;;;;;0.70;0.70;;;20.00;52.20;;;;;;5010476;28;20030;-78
2022/05/22 12:52:26;;;;;;;1.05;0.98;;;20.00;52.30;;;;;;5011575;28;20033;-79
2022/05/22 12:55:21;;;;;;;1.38;1.00;;;20.10;52.30;;;;;;5012529;28;20042;-78
2022/05/22 12:58:29;;;;;;;0.73;0.73;;;20.30;51.90;;;;;;5013770;28;20125;-77
2022/05/22 13:00:56;;;;;;;0.77;0.77;;;20.40;51.50;;;;;;5013863;28;20381;-78
2022/05/22 13:03:33;;;;;;;0.60;0.60;;;20.40;51.80;;;;;;5013429;28;20380;-78
2022/05/22 13:06:22;;;;;;;0.80;0.80;;;20.40;51.60;;;;;;5014525;28;20369;-78
2022/05/22 13:09:10;;;;;;;0.80;0.80;;;20.30;51.30;;;;;;5012329;28;20076;-78
2022/05/22 13:11:45;;;;;;;0.82;0.80;;;20.20;51.70;;;;;;5012053;28;20042;-79
2022/05/22 13:14:25;;;;;;;0.70;0.70;;;20.10;51.80;;;;;;5013401;28;20034;-79
2022/05/22 13:16:52;;;;;;;1.00;0.95;;;20.10;51.60;;;;;;5012697;28;20118;-79
2022/05/22 13:19:27;;;;;;;0.63;0.63;;;20.10;52.00;;;;;;5013532;28;20030;-79
2022/05/22 13:21:54;;;;;;;0.82;0.82;;;20.00;52.00;;;;;;5012332;28;20539;-79